Time,TemperatureF,DewpointF,PressureIn,WindDirection,WindDirectionDegrees,WindSpeedMPH,WindSpeedGustMPH,Humidity,HourlyPrecipIn,Conditions,Clouds,dailyrainin,SolarRadiationWatts/m^2,SoftwareType,DateUTC
2013-03-19 00:04:00,69.2,65.0,29.93,SW,230,1.0,7.0,87,0.00,,,0.00,0,weatherlink.com 1.10,2013-03-19 04:04:00,
2013-03-19 00:19:00,69.1,65.0,29.94,SSW,210,0.0,4.0,87,0.00,,,0.00,0,weatherlink.com 1.10,2013-03-19 04:19:00,
2013-03-19 00:34:00,68.7,65.0,29.94,SSW,210,0.0,2.0,88,0.00,,,0.00,0,weatherlink.com 1.10,2013-03-19 04:34:00,
2013-03-19 00:49:00,68.4,65.0,29.94,SSW,210,2.0,3.0,88,0.00,,,0.00,0,weatherlink.com 1.10,2013-03-19 04:49:00,
2013-03-19 01:04:00,68.1,65.0,29.94,SSW,210,0.0,0.0,88,0.00,,,0.00,0,weatherlink.com 1.10,2013-03-19 05:04:00,
2013-03-19 01:19:00,67.7,64.0,29.93,SSW,210,0.0,2.0,89,0.00,,,0.00,0,weatherlink.com 1.10,2013-03-19 05:19:00,
2013-03-19 01:34:00,67.2,64.0,29.93,SSW,210,0.0,0.0,90,0.00,,,0.00,0,weatherlink.com 1.10,2013-03-19 05:34:00,
2013-03-19 01:49:00,66.6,64.0,29.95,NNW,328,1.0,3.0,92,0.00,,,0.00,0,weatherlink.com 1.10,2013-03-19 05:49:00,
2013-03-19 02:04:00,66.7,64.0,29.95,NNW,329,0.0,3.0,92,0.00,,,0.00,0,weatherlink.com 1.10,2013-03-19 06:04:00,
2013-03-19 02:19:00,66.6,65.0,29.95,NNW,329,1.0,3.0,93,0.00,,,0.00,0,weatherlink.com 1.10,2013-03-19 06:19:00,
2013-03-19 02:34:00,66.5,65.0,29.95,NNW,329,0.0,1.0,93,0.00,,,0.00,0,weatherlink.com 1.10,2013-03-19 06:34:00,
2013-03-19 02:49:00,66.1,64.0,29.95,NNW,329,0.0,1.0,93,0.00,,,0.00,0,weatherlink.com 1.10,2013-03-19 06:49:00,
2013-03-19 03:04:00,65.7,64.0,29.95,NNW,329,0.0,0.0,93,0.00,,,0.00,0,weatherlink.com 1.10,2013-03-19 07:04:00,
2013-03-19 03:19:00,65.5,64.0,29.95,NNW,327,0.0,4.0,94,0.00,,,0.00,0,weatherlink.com 1.10,2013-03-19 07:19:00,
2013-03-19 03:34:00,65.3,64.0,29.94,NNW,327,0.0,0.0,94,0.00,,,0.00,0,weatherlink.com 1.10,2013-03-19 07:34:00,
2013-03-19 03:49:00,64.9,64.0,29.95,NW,322,0.0,3.0,95,0.00,,,0.00,0,weatherlink.com 1.10,2013-03-19 07:49:00,
2013-03-19 04:05:00,64.6,63.0,29.95,NW,322,0.0,0.0,94,0.00,,,0.00,0,weatherlink.com 1.10,2013-03-19 08:05:00,
2013-03-19 04:20:00,64.3,63.0,29.95,NW,324,0.0,3.0,95,0.00,,,0.00,0,weatherlink.com 1.10,2013-03-19 08:20:00,
2013-03-19 04:35:00,64.3,63.0,29.95,NW,324,0.0,3.0,96,0.00,,,0.00,0,weatherlink.com 1.10,2013-03-19 08:35:00,
2013-03-19 04:50:00,64.3,63.0,29.92,ENE,68,0.0,2.0,96,0.00,,,0.00,0,weatherlink.com 1.10,2013-03-19 08:50:00,
2013-03-19 05:05:00,64.3,63.0,29.93,East,79,0.0,3.0,96,0.00,,,0.00,0,weatherlink.com 1.10,2013-03-19 09:05:00,
2013-03-19 05:20:00,64.1,63.0,29.93,NE,38,1.0,3.0,96,0.00,,,0.00,0,weatherlink.com 1.10,2013-03-19 09:20:00,
2013-03-19 05:35:00,63.9,63.0,29.94,NE,43,1.0,3.0,96,0.00,,,0.00,0,weatherlink.com 1.10,2013-03-19 09:35:00,
2013-03-19 05:50:00,63.9,63.0,29.94,NE,53,1.0,4.0,96,0.00,,,0.00,0,weatherlink.com 1.10,2013-03-19 09:50:00,
2013-03-19 06:05:00,64.0,63.0,29.93,NNE,25,3.0,6.0,97,0.00,,,0.00,0,weatherlink.com 1.10,2013-03-19 10:05:00,
2013-03-19 06:20:00,64.1,63.0,29.94,NE,45,1.0,6.0,97,0.00,,,0.00,0,weatherlink.com 1.10,2013-03-19 10:20:00,
2013-03-19 06:35:00,64.2,63.0,29.95,NE,42,0.0,6.0,97,0.00,,,0.00,0,weatherlink.com 1.10,2013-03-19 10:35:00,
2013-03-19 06:50:00,64.0,63.0,29.97,NNE,26,1.0,3.0,97,0.00,,,0.00,0,weatherlink.com 1.10,2013-03-19 10:50:00,
2013-03-19 07:05:00,64.2,63.0,29.98,NE,40,0.0,6.0,97,0.00,,,0.00,0,weatherlink.com 1.10,2013-03-19 11:05:00,
2013-03-19 07:20:00,64.1,63.0,29.98,NE,39,0.0,5.0,96,0.00,,,0.00,0,weatherlink.com 1.10,2013-03-19 11:20:00,
2013-03-19 07:35:00,63.6,63.0,29.96,SSE,149,1.0,5.0,96,0.00,,,0.00,0,weatherlink.com 1.10,2013-03-19 11:35:00,
2013-03-19 07:50:00,63.2,62.0,29.96,East,101,7.0,8.0,95,0.00,,,0.00,7,weatherlink.com 1.10,2013-03-19 11:50:00,
2013-03-19 08:05:00,63.3,62.0,29.98,ESE,106,1.0,7.0,96,0.00,,,0.00,18,weatherlink.com 1.10,2013-03-19 12:05:00,
2013-03-19 08:20:00,63.0,62.0,30.00,SE,133,0.0,4.0,95,0.00,,,0.00,23,weatherlink.com 1.10,2013-03-19 12:20:00,
2013-03-19 08:35:00,62.8,61.0,30.01,SE,133,0.0,3.0,95,0.00,,,0.00,42,weatherlink.com 1.10,2013-03-19 12:35:00,
2013-03-19 08:50:00,63.7,62.0,30.05,NW,314,6.0,9.0,95,0.00,,,0.00,86,weatherlink.com 1.10,2013-03-19 12:50:00,
2013-03-19 09:05:00,64.3,62.0,30.04,NNE,33,3.0,7.0,93,0.00,,,0.00,309,weatherlink.com 1.10,2013-03-19 13:05:00,
2013-03-19 09:20:00,65.0,62.0,30.04,North,359,0.0,6.0,91,0.00,,,0.00,93,weatherlink.com 1.10,2013-03-19 13:20:00,
2013-03-19 09:35:00,65.3,62.0,30.04,NNE,26,3.0,7.0,89,0.00,,,0.00,105,weatherlink.com 1.10,2013-03-19 13:35:00,
2013-03-19 09:50:00,66.2,62.0,30.02,ENE,69,3.0,6.0,86,0.00,,,0.00,294,weatherlink.com 1.10,2013-03-19 13:50:00,
2013-03-19 10:05:00,67.3,62.0,30.00,NE,56,0.0,6.0,83,0.00,,,0.00,490,weatherlink.com 1.10,2013-03-19 14:05:00,
2013-03-19 10:20:00,69.4,63.0,30.00,East,101,3.0,4.0,80,0.00,,,0.00,527,weatherlink.com 1.10,2013-03-19 14:20:00,
2013-03-19 10:35:00,71.1,64.0,29.99,North,353,3.0,6.0,78,0.00,,,0.00,582,weatherlink.com 1.10,2013-03-19 14:35:00,
2013-03-19 10:50:00,72.5,63.0,30.00,SE,126,2.0,7.0,73,0.00,,,0.00,589,weatherlink.com 1.10,2013-03-19 14:50:00,
2013-03-19 11:05:00,72.8,63.0,30.00,SSE,151,0.0,5.0,72,0.00,,,0.00,668,weatherlink.com 1.10,2013-03-19 15:05:00,
2013-03-19 11:20:00,72.3,63.0,29.99,SSW,212,4.0,9.0,73,0.00,,,0.00,707,weatherlink.com 1.10,2013-03-19 15:20:00,
2013-03-19 11:35:00,73.0,64.0,30.00,South,176,6.0,8.0,73,0.00,,,0.00,742,weatherlink.com 1.10,2013-03-19 15:35:00,
2013-03-19 11:51:00,74.4,63.0,30.00,WSW,255,1.0,8.0,67,0.00,,,0.00,773,weatherlink.com 1.10,2013-03-19 15:51:00,
2013-03-19 12:06:00,76.2,64.0,30.00,SSW,201,0.0,7.0,65,0.00,,,0.00,798,weatherlink.com 1.10,2013-03-19 16:06:00,
2013-03-19 12:21:00,76.7,64.0,30.00,SSE,153,3.0,9.0,64,0.00,,,0.00,819,weatherlink.com 1.10,2013-03-19 16:21:00,
2013-03-19 12:36:00,77.9,64.0,29.99,East,101,1.0,6.0,62,0.00,,,0.00,854,weatherlink.com 1.10,2013-03-19 16:36:00,
2013-03-19 12:51:00,78.4,63.0,29.98,SE,129,0.0,7.0,59,0.00,,,0.00,854,weatherlink.com 1.10,2013-03-19 16:51:00,
2013-03-19 13:06:00,78.5,64.0,29.97,SW,216,1.0,10.0,62,0.00,,,0.00,865,weatherlink.com 1.10,2013-03-19 17:06:00,
2013-03-19 13:21:00,78.7,64.0,29.97,SSW,207,5.0,7.0,61,0.00,,,0.00,875,weatherlink.com 1.10,2013-03-19 17:21:00,
2013-03-19 13:35:00,80.3,64.0,29.96,SSE,163,2.0,7.0,57,0.00,,,0.00,847,weatherlink.com 1.10,2013-03-19 17:35:00,
2013-03-19 13:50:00,80.0,62.0,29.96,SW,228,0.0,6.0,54,0.00,,,0.00,777,weatherlink.com 1.10,2013-03-19 17:50:00,
2013-03-19 14:06:00,81.2,62.0,29.95,SE,128,1.0,6.0,52,0.00,,,0.00,768,weatherlink.com 1.10,2013-03-19 18:06:00,
2013-03-19 14:21:00,81.6,61.0,29.95,NE,49,2.0,5.0,49,0.00,,,0.00,896,weatherlink.com 1.10,2013-03-19 18:21:00,
2013-03-19 14:36:00,81.6,61.0,29.94,ESE,108,2.0,4.0,50,0.00,,,0.00,332,weatherlink.com 1.10,2013-03-19 18:36:00,
2013-03-19 14:51:00,81.9,60.0,29.93,South,180,0.0,4.0,48,0.00,,,0.00,446,weatherlink.com 1.10,2013-03-19 18:51:00,
2013-03-19 15:06:00,82.1,60.0,29.93,NW,314,2.0,5.0,47,0.00,,,0.00,334,weatherlink.com 1.10,2013-03-19 19:06:00,
2013-03-19 15:21:00,82.1,59.0,29.93,WNW,298,4.0,8.0,46,0.00,,,0.00,571,weatherlink.com 1.10,2013-03-19 19:21:00,
2013-03-19 15:36:00,82.4,60.0,29.92,North,357,0.0,8.0,47,0.00,,,0.00,332,weatherlink.com 1.10,2013-03-19 19:36:00,
2013-03-19 15:51:00,82.4,60.0,29.91,WNW,290,7.0,12.0,47,0.00,,,0.00,791,weatherlink.com 1.10,2013-03-19 19:51:00,
2013-03-19 16:21:00,85.1,60.0,29.90,WNW,288,0.0,7.0,43,0.00,,,0.00,608,weatherlink.com 1.10,2013-03-19 20:21:00,
2013-03-19 16:36:00,85.7,61.0,29.90,SW,225,5.0,8.0,43,0.00,,,0.00,554,weatherlink.com 1.10,2013-03-19 20:36:00,
2013-03-19 16:51:00,85.1,61.0,29.90,WSW,249,4.0,5.0,44,0.00,,,0.00,480,weatherlink.com 1.10,2013-03-19 20:51:00,
2013-03-19 17:06:00,85.2,61.0,29.90,West,262,0.0,7.0,44,0.00,,,0.00,311,weatherlink.com 1.10,2013-03-19 21:06:00,
2013-03-19 17:21:00,84.8,61.0,29.90,WNW,291,0.0,6.0,44,0.00,,,0.00,517,weatherlink.com 1.10,2013-03-19 21:21:00,
2013-03-19 17:36:00,85.4,60.0,29.90,NNW,342,0.0,5.0,42,0.00,,,0.00,438,weatherlink.com 1.10,2013-03-19 21:36:00,
2013-03-19 18:06:00,83.9,60.0,29.90,WSW,243,1.0,5.0,45,0.00,,,0.00,100,weatherlink.com 1.10,2013-03-19 22:06:00,
2013-03-19 18:21:00,83.5,61.0,29.90,SW,215,3.0,4.0,47,0.00,,,0.00,58,weatherlink.com 1.10,2013-03-19 22:21:00,
2013-03-19 19:06:00,81.8,61.0,29.91,NW,323,4.0,4.0,50,0.00,,,0.00,30,weatherlink.com 1.10,2013-03-19 23:06:00,
2013-03-19 19:21:00,80.9,61.0,29.91,WNW,298,0.0,5.0,51,0.00,,,0.00,16,weatherlink.com 1.10,2013-03-19 23:21:00,
2013-03-19 19:36:00,80.1,61.0,29.91,WNW,297,0.0,2.0,53,0.00,,,0.00,0,weatherlink.com 1.10,2013-03-19 23:36:00,
2013-03-19 19:51:00,79.1,61.0,29.92,WNW,298,0.0,1.0,55,0.00,,,0.00,0,weatherlink.com 1.10,2013-03-19 23:51:00,
2013-03-19 20:06:00,77.6,62.0,29.93,NNE,30,0.0,2.0,58,0.00,,,0.00,0,weatherlink.com 1.10,2013-03-20 00:06:00,
2013-03-19 20:21:00,76.6,61.0,29.93,NNE,30,0.0,2.0,58,0.00,,,0.00,0,weatherlink.com 1.10,2013-03-20 00:21:00,
2013-03-19 20:36:00,76.1,61.0,29.94,ESE,118,1.0,7.0,59,0.00,,,0.00,0,weatherlink.com 1.10,2013-03-20 00:36:00,
2013-03-19 20:51:00,75.1,62.0,29.95,East,101,2.0,6.0,63,0.00,,,0.00,0,weatherlink.com 1.10,2013-03-20 00:51:00,
2013-03-19 21:06:00,73.9,61.0,29.95,ENE,72,2.0,7.0,65,0.00,,,0.00,0,weatherlink.com 1.10,2013-03-20 01:06:00,
2013-03-19 21:21:00,73.1,61.0,29.95,NE,51,3.0,7.0,66,0.00,,,0.00,0,weatherlink.com 1.10,2013-03-20 01:21:00,
2013-03-19 21:36:00,72.4,61.0,29.95,North,356,0.0,4.0,67,0.00,,,0.00,0,weatherlink.com 1.10,2013-03-20 01:36:00,
2013-03-19 21:51:00,71.8,61.0,29.95,ENE,78,0.0,3.0,69,0.00,,,0.00,0,weatherlink.com 1.10,2013-03-20 01:51:00,
2013-03-19 22:06:00,71.2,61.0,29.95,ESE,120,0.0,3.0,70,0.00,,,0.00,0,weatherlink.com 1.10,2013-03-20 02:06:00,
2013-03-19 22:21:00,70.4,61.0,29.95,NE,39,0.0,3.0,71,0.00,,,0.00,0,weatherlink.com 1.10,2013-03-20 02:21:00,
2013-03-19 22:36:00,69.7,61.0,29.96,NNE,21,3.0,7.0,73,0.00,,,0.00,0,weatherlink.com 1.10,2013-03-20 02:36:00,
2013-03-19 22:51:00,69.5,61.0,29.96,ESE,120,0.0,4.0,75,0.00,,,0.00,0,weatherlink.com 1.10,2013-03-20 02:51:00,
2013-03-19 23:06:00,69.4,62.0,29.97,NE,49,2.0,5.0,76,0.00,,,0.00,0,weatherlink.com 1.10,2013-03-20 03:06:00,
2013-03-19 23:21:00,69.3,62.0,29.98,NE,49,3.0,6.0,77,0.00,,,0.00,0,weatherlink.com 1.10,2013-03-20 03:21:00,
2013-03-19 23:36:00,68.9,62.0,29.97,East,86,0.0,8.0,78,0.00,,,0.00,0,weatherlink.com 1.10,2013-03-20 03:36:00,
2013-03-19 23:51:00,68.4,62.0,29.98,NNW,339,3.0,5.0,80,0.00,,,0.00,0,weatherlink.com 1.10,2013-03-20 03:51:00,